createdAt,value
2024-01-31T00:00:34.716Z,74.42
2024-01-31T00:03:03.789Z,74.75
2024-01-31T00:05:53.632Z,74.29
2024-01-31T00:08:24.845Z,74.89
2024-01-31T00:10:53.728Z,74.13
2024-01-31T00:13:22.248Z,73.87
2024-01-31T00:15:50.818Z,74.33
2024-01-31T00:18:19.604Z,77.47
2024-01-31T00:20:48.221Z,76.44
2024-01-31T00:23:16.807Z,77.38
2024-01-31T00:25:45.451Z,77.60
2024-01-31T00:28:14.879Z,79.01
2024-01-31T00:30:43.451Z,80.31
2024-01-31T00:33:12.064Z,80.72
2024-01-31T00:35:40.607Z,80.77
2024-01-31T00:38:09.477Z,81.82
2024-01-31T00:40:38.117Z,83.21
2024-01-31T00:43:07.146Z,83.45
2024-01-31T00:45:35.832Z,84.23
2024-01-31T00:48:04.865Z,84.61
2024-01-31T00:50:33.619Z,85.04
2024-01-31T00:53:02.132Z,85.20
2024-01-31T00:55:30.760Z,85.31
2024-01-31T00:57:59.445Z,85.38
2024-01-31T01:00:28.712Z,85.50
2024-01-31T01:02:57.421Z,85.73
2024-01-31T01:05:26.080Z,79.08
2024-01-31T01:07:54.670Z,78.05
2024-01-31T01:10:23.658Z,76.48
2024-01-31T01:12:52.389Z,77.02
2024-01-31T01:15:21.963Z,74.98
2024-01-31T01:17:50.686Z,75.92
2024-01-31T01:20:20.122Z,74.42
2024-01-31T01:22:49.500Z,75.41
2024-01-31T01:25:19.060Z,74.44
2024-01-31T01:27:53.265Z,75.23
2024-01-31T01:30:23.075Z,76.31
2024-01-31T01:32:51.730Z,76.51
2024-01-31T01:35:20.352Z,79.25
2024-01-31T01:37:49.031Z,79.79
2024-01-31T01:40:18.982Z,80.63
2024-01-31T01:42:47.969Z,81.36
2024-01-31T01:45:16.613Z,81.95
2024-01-31T01:47:50.792Z,83.67
2024-01-31T01:50:20.758Z,84.47
2024-01-31T01:52:49.997Z,84.64
2024-01-31T01:55:18.917Z,84.54
2024-01-31T01:57:47.631Z,83.52
2024-01-31T02:00:18.198Z,83.55
2024-01-31T02:02:47.062Z,84.49
2024-01-31T02:05:15.801Z,83.21
2024-01-31T02:07:45.108Z,82.32
2024-01-31T02:10:13.725Z,83.47
2024-01-31T02:12:42.375Z,83.98
2024-01-31T02:15:12.201Z,83.84
2024-01-31T02:17:40.805Z,84.27
2024-01-31T02:20:10.088Z,84.11
2024-01-31T02:22:38.967Z,84.83
2024-01-31T02:25:15.502Z,85.25
2024-01-31T02:27:44.097Z,85.55
2024-01-31T02:30:13.075Z,86.93
2024-01-31T02:32:41.725Z,87.65
2024-01-31T02:35:10.414Z,87.19
2024-01-31T02:37:45.010Z,86.22
2024-01-31T02:40:13.690Z,84.61
2024-01-31T02:42:42.404Z,84.49
2024-01-31T02:45:11.352Z,85.49
2024-01-31T02:47:41.481Z,85.76
2024-01-31T02:50:10.558Z,86.42
2024-01-31T02:52:38.629Z,87.55
2024-01-31T02:55:07.861Z,87.63
2024-01-31T02:57:39.892Z,87.97
2024-01-31T03:00:10.764Z,88.61
2024-01-31T03:02:39.332Z,89.46
2024-01-31T03:05:08.748Z,88.24
2024-01-31T03:07:37.449Z,88.50
2024-01-31T03:10:06.529Z,89.20
2024-01-31T03:12:35.093Z,88.57
2024-01-31T03:15:04.280Z,88.49
2024-01-31T03:17:38.318Z,88.07
2024-01-31T03:20:08.031Z,88.38
2024-01-31T03:22:39.846Z,86.94
2024-01-31T03:25:09.817Z,87.13
2024-01-31T03:27:38.464Z,88.60
2024-01-31T03:30:09.331Z,88.36
2024-01-31T03:32:39.261Z,86.36
2024-01-31T03:35:08.540Z,86.36
2024-01-31T03:37:37.313Z,85.82
2024-01-31T03:40:11.535Z,85.98
2024-01-31T03:42:40.293Z,88.26
2024-01-31T03:45:08.566Z,87.35
2024-01-31T03:47:37.326Z,87.39
2024-01-31T03:50:09.396Z,87.40
2024-01-31T03:52:38.647Z,86.90
2024-01-31T03:55:07.757Z,86.32
2024-01-31T03:57:36.348Z,87.75
2024-01-31T04:00:11.582Z,87.92
2024-01-31T04:02:40.567Z,88.70
2024-01-31T04:05:13.582Z,89.31
2024-01-31T04:07:46.784Z,90.55
2024-01-31T04:10:16.173Z,90.36
2024-01-31T04:12:44.956Z,89.57
2024-01-31T04:15:12.926Z,89.16
2024-01-31T04:17:41.734Z,89.66
2024-01-31T04:20:11.099Z,89.09
2024-01-31T04:22:40.502Z,88.75
2024-01-31T04:25:10.024Z,88.22
2024-01-31T04:27:38.732Z,89.27
2024-01-31T04:30:10.598Z,88.26
2024-01-31T04:32:39.302Z,88.10
2024-01-31T04:35:11.565Z,89.07
2024-01-31T04:37:40.499Z,86.98
2024-01-31T04:40:11.347Z,88.75
2024-01-31T04:42:41.419Z,87.05
2024-01-31T04:45:10.980Z,87.04
2024-01-31T04:47:40.535Z,86.47
2024-01-31T04:50:09.809Z,87.22
2024-01-31T04:52:39.135Z,87.34
2024-01-31T04:55:08.113Z,87.68
2024-01-31T04:57:36.747Z,88.67
2024-01-31T05:00:07.094Z,87.67
2024-01-31T05:02:35.692Z,87.77
2024-01-31T05:05:04.063Z,88.89
2024-01-31T05:07:32.695Z,88.18
2024-01-31T05:10:01.488Z,88.28
2024-01-31T05:12:30.168Z,88.24
2024-01-31T05:14:58.675Z,88.35
2024-01-31T05:17:27.287Z,88.88
2024-01-31T05:19:55.932Z,89.36
2024-01-31T05:22:24.601Z,87.16
2024-01-31T05:24:53.175Z,86.96
2024-01-31T05:27:21.701Z,88.28
2024-01-31T05:29:50.254Z,88.21
2024-01-31T05:32:18.906Z,88.64
2024-01-31T05:34:47.496Z,88.54
2024-01-31T05:37:16.209Z,89.53
2024-01-31T05:39:44.843Z,89.73
2024-01-31T05:42:13.359Z,90.46
2024-01-31T05:44:41.959Z,88.94
2024-01-31T05:47:10.535Z,89.21
2024-01-31T05:49:39.281Z,88.58
2024-01-31T05:52:08.424Z,87.24
2024-01-31T05:54:37.081Z,86.12
2024-01-31T05:57:05.770Z,86.87
2024-01-31T05:59:34.405Z,85.35
2024-01-31T06:02:03.030Z,85.90
2024-01-31T06:04:31.613Z,86.71
2024-01-31T06:07:00.354Z,86.65
2024-01-31T06:09:32.690Z,85.86
2024-01-31T06:12:01.235Z,86.79
2024-01-31T06:14:29.783Z,87.69
2024-01-31T06:16:58.397Z,88.77
2024-01-31T06:19:27.643Z,87.85
2024-01-31T06:21:56.206Z,88.15
2024-01-31T06:24:24.270Z,87.24
2024-01-31T06:26:52.787Z,88.38
2024-01-31T06:29:21.417Z,88.42
2024-01-31T06:31:51.003Z,87.14
2024-01-31T06:34:19.703Z,87.32
2024-01-31T06:36:48.343Z,87.97
2024-01-31T06:39:17.086Z,87.40
2024-01-31T06:41:45.667Z,87.94
2024-01-31T06:44:14.278Z,88.47
2024-01-31T06:46:43.042Z,88.06
2024-01-31T06:49:11.751Z,88.41
2024-01-31T06:51:40.542Z,88.68
2024-01-31T06:54:09.796Z,87.75
2024-01-31T06:56:38.465Z,87.47
2024-01-31T06:59:07.095Z,86.54
2024-01-31T07:01:35.921Z,87.49
2024-01-31T07:04:04.754Z,88.75
2024-01-31T07:06:33.489Z,88.60
2024-01-31T07:09:02.218Z,88.38
2024-01-31T07:11:30.840Z,89.00
2024-01-31T07:13:59.429Z,88.87
2024-01-31T07:16:28.031Z,88.86
2024-01-31T07:18:57.773Z,89.63
2024-01-31T07:21:27.896Z,89.98
2024-01-31T07:23:57.086Z,90.61
2024-01-31T07:26:30.772Z,90.52
2024-01-31T07:28:59.321Z,89.61
2024-01-31T07:31:28.292Z,90.27
2024-01-31T07:33:56.988Z,90.63
2024-01-31T07:36:25.608Z,89.88
2024-01-31T07:38:54.292Z,90.52
2024-01-31T07:41:22.975Z,89.70
2024-01-31T07:43:51.557Z,90.41
2024-01-31T07:46:20.299Z,89.05
2024-01-31T07:48:49.001Z,88.35
2024-01-31T07:51:18.139Z,89.12
2024-01-31T07:53:46.719Z,88.69
2024-01-31T07:56:15.329Z,88.07
2024-01-31T07:58:44.075Z,88.42
2024-01-31T08:01:15.905Z,88.02
2024-01-31T08:03:45.362Z,88.47
2024-01-31T08:06:13.960Z,89.12
2024-01-31T08:08:44.952Z,88.03
2024-01-31T08:11:14.205Z,87.65
2024-01-31T08:13:42.918Z,89.08
2024-01-31T08:16:17.533Z,88.31
2024-01-31T08:18:46.180Z,89.01
2024-01-31T08:21:14.613Z,88.96
2024-01-31T08:23:43.304Z,88.86
2024-01-31T08:26:21.488Z,88.91
2024-01-31T08:28:56.322Z,89.07
2024-01-31T08:31:31.594Z,88.68
2024-01-31T08:34:00.377Z,88.51
2024-01-31T08:36:30.227Z,88.04
2024-01-31T08:38:58.834Z,88.20
2024-01-31T08:41:27.650Z,87.93
2024-01-31T08:43:56.207Z,88.80
2024-01-31T08:46:24.826Z,88.92
2024-01-31T08:48:53.501Z,89.44
2024-01-31T08:51:21.955Z,89.66
2024-01-31T08:53:50.524Z,89.51
2024-01-31T08:56:19.167Z,88.49
2024-01-31T08:58:47.797Z,87.38
2024-01-31T09:01:15.797Z,88.42
2024-01-31T09:03:44.418Z,89.37
2024-01-31T09:06:14.838Z,88.92
2024-01-31T09:08:43.427Z,88.95
2024-01-31T09:11:11.981Z,88.96
2024-01-31T09:13:40.611Z,88.22
2024-01-31T09:16:09.275Z,88.52
2024-01-31T09:18:39.984Z,89.33
2024-01-31T09:21:10.468Z,88.03
2024-01-31T09:23:39.169Z,89.17
2024-01-31T09:26:07.860Z,89.56
2024-01-31T09:28:36.501Z,89.60
2024-01-31T09:31:05.312Z,88.85
2024-01-31T09:33:33.910Z,88.03
2024-01-31T09:36:02.461Z,88.45
2024-01-31T09:38:31.138Z,89.43
2024-01-31T09:41:00.112Z,90.51
2024-01-31T09:43:29.699Z,91.30
2024-01-31T09:46:00.133Z,90.79
2024-01-31T09:48:29.869Z,89.85
2024-01-31T09:50:58.549Z,90.61
2024-01-31T09:53:27.209Z,90.79
2024-01-31T09:55:59.180Z,90.59
2024-01-31T09:58:27.757Z,90.50
2024-01-31T10:01:00.530Z,90.27
2024-01-31T10:03:30.628Z,90.83
2024-01-31T10:05:59.322Z,89.78
2024-01-31T10:08:31.743Z,90.08
2024-01-31T10:11:00.409Z,91.05
2024-01-31T10:13:30.118Z,90.59
2024-01-31T10:15:58.777Z,90.75
2024-01-31T10:18:30.868Z,90.62
2024-01-31T10:21:00.454Z,91.15
2024-01-31T10:23:29.083Z,90.85
2024-01-31T10:25:57.966Z,91.72
2024-01-31T10:28:26.794Z,91.72
2024-01-31T10:30:56.251Z,92.15
2024-01-31T10:33:26.716Z,91.64
2024-01-31T10:38:28.206Z,92.52
2024-01-31T10:40:59.941Z,93.56
2024-01-31T10:43:31.814Z,93.82
2024-01-31T10:46:00.576Z,93.92
2024-01-31T10:48:29.567Z,93.36
2024-01-31T10:51:01.839Z,93.23
2024-01-31T10:53:32.392Z,93.75
2024-01-31T10:56:02.392Z,94.03
2024-01-31T10:58:31.762Z,94.48
2024-01-31T11:01:00.506Z,94.99
2024-01-31T11:03:29.502Z,95.26
2024-01-31T11:05:58.741Z,95.85
2024-01-31T11:08:29.464Z,95.61
2024-01-31T11:10:58.484Z,95.14
2024-01-31T11:13:27.034Z,95.78
2024-01-31T11:15:55.596Z,96.41
2024-01-31T11:18:28.190Z,96.45
2024-01-31T11:20:58.514Z,96.51
2024-01-31T11:23:28.190Z,96.21
2024-01-31T11:25:56.466Z,96.02
2024-01-31T11:28:28.628Z,96.19
2024-01-31T11:30:57.483Z,96.64
2024-01-31T11:33:26.139Z,95.79
2024-01-31T11:35:54.959Z,96.61
2024-01-31T11:38:24.059Z,96.76
2024-01-31T11:40:53.947Z,97.10
2024-01-31T11:43:22.861Z,96.85
2024-01-31T11:45:51.479Z,96.10
2024-01-31T11:48:20.179Z,95.77
2024-01-31T11:50:49.034Z,96.62
2024-01-31T11:53:17.891Z,96.51
2024-01-31T11:55:49.665Z,96.38
2024-01-31T11:58:18.359Z,96.22
2024-01-31T12:00:47.418Z,96.80
2024-01-31T12:03:16.294Z,97.77
2024-01-31T12:05:45.028Z,97.47
2024-01-31T12:08:19.435Z,97.15
2024-01-31T12:10:47.559Z,98.01
2024-01-31T12:13:17.283Z,97.61
2024-01-31T12:15:48.929Z,98.00
2024-01-31T12:18:18.167Z,97.86
2024-01-31T12:20:46.836Z,97.78
2024-01-31T12:23:15.481Z,99.49
2024-01-31T12:25:44.029Z,97.40
2024-01-31T12:28:12.620Z,97.00
2024-01-31T12:30:41.367Z,97.32
2024-01-31T12:33:10.324Z,96.96
2024-01-31T12:35:38.981Z,96.33
2024-01-31T12:38:07.667Z,97.34
2024-01-31T12:40:36.426Z,95.69
2024-01-31T12:43:05.500Z,96.88
2024-01-31T12:45:35.743Z,97.07
2024-01-31T12:48:04.629Z,96.65
2024-01-31T12:50:33.705Z,96.44
2024-01-31T12:53:02.282Z,96.91
2024-01-31T12:55:30.951Z,96.53
2024-01-31T12:57:59.557Z,97.17
2024-01-31T13:00:28.221Z,97.12
2024-01-31T13:02:56.991Z,97.46
2024-01-31T13:05:26.493Z,96.44
2024-01-31T13:07:55.430Z,97.09
2024-01-31T13:10:24.668Z,97.09
2024-01-31T13:12:53.203Z,96.46
2024-01-31T13:15:25.228Z,96.52
2024-01-31T13:17:53.936Z,97.16
2024-01-31T13:20:23.052Z,96.50
2024-01-31T13:22:51.799Z,96.45
2024-01-31T13:25:20.372Z,100.00
2024-01-31T13:27:50.740Z,100.00
2024-01-31T13:30:19.521Z,99.58
2024-01-31T13:32:48.238Z,97.93
2024-01-31T13:35:16.756Z,95.96
2024-01-31T13:37:45.398Z,94.16
2024-01-31T13:40:14.105Z,95.16
2024-01-31T13:42:42.781Z,93.89
2024-01-31T13:45:12.297Z,94.66
2024-01-31T13:47:41.838Z,94.70
2024-01-31T13:50:10.778Z,96.85
2024-01-31T13:52:39.023Z,96.56
2024-01-31T13:55:08.119Z,95.58
2024-01-31T13:57:36.790Z,95.33
2024-01-31T14:00:09.829Z,95.08
2024-01-31T14:02:40.294Z,95.68
2024-01-31T14:05:09.428Z,96.42
2024-01-31T14:07:38.007Z,96.63
2024-01-31T14:10:07.540Z,95.23
2024-01-31T14:12:36.120Z,95.05
2024-01-31T14:15:04.999Z,96.05
2024-01-31T14:17:33.611Z,95.75
2024-01-31T14:20:02.398Z,96.63
2024-01-31T14:22:41.294Z,96.01
2024-01-31T14:25:19.727Z,96.18
2024-01-31T14:27:48.534Z,96.11
2024-01-31T14:30:17.515Z,96.92
2024-01-31T14:32:46.366Z,97.88
2024-01-31T14:35:15.017Z,97.93
2024-01-31T14:37:43.863Z,97.47
2024-01-31T14:40:12.762Z,98.21
2024-01-31T14:42:41.314Z,97.98
2024-01-31T14:45:13.088Z,98.85
2024-01-31T14:47:41.734Z,98.29
2024-01-31T14:50:10.595Z,97.42
2024-01-31T14:52:39.387Z,96.59
2024-01-31T14:55:08.534Z,95.80
2024-01-31T14:57:39.000Z,96.25
2024-01-31T15:00:08.523Z,96.30
2024-01-31T15:02:37.095Z,96.11
2024-01-31T15:05:06.039Z,96.26
2024-01-31T15:07:34.829Z,95.37
2024-01-31T15:10:03.388Z,95.48
2024-01-31T15:12:31.995Z,95.29
2024-01-31T15:15:00.549Z,94.29
2024-01-31T15:17:29.727Z,94.24
2024-01-31T15:19:58.443Z,93.25
2024-01-31T15:22:28.755Z,93.31
2024-01-31T15:24:57.358Z,93.14
2024-01-31T15:27:26.168Z,92.53
2024-01-31T15:29:54.778Z,92.26
2024-01-31T15:32:23.585Z,92.03
2024-01-31T15:34:52.335Z,91.76
2024-01-31T15:37:21.166Z,92.00
2024-01-31T15:39:49.803Z,90.98
2024-01-31T15:42:18.358Z,90.66
2024-01-31T15:44:47.695Z,90.37
2024-01-31T15:47:18.716Z,89.70
2024-01-31T15:49:48.210Z,90.39
2024-01-31T15:52:17.944Z,90.95
2024-01-31T15:54:46.553Z,89.98
2024-01-31T15:57:15.167Z,89.43
2024-01-31T15:59:43.799Z,89.59
2024-01-31T16:02:12.377Z,89.32
2024-01-31T16:04:40.436Z,89.16
2024-01-31T16:07:09.918Z,89.51
2024-01-31T16:09:38.548Z,88.19
2024-01-31T16:12:07.765Z,87.85
2024-01-31T16:14:40.585Z,87.81
2024-01-31T16:17:09.470Z,88.04
2024-01-31T16:19:38.175Z,87.15
2024-01-31T16:22:06.862Z,86.93
2024-01-31T16:24:35.517Z,86.15
2024-01-31T16:27:04.207Z,86.45
2024-01-31T16:29:32.778Z,85.30
2024-01-31T16:32:01.400Z,84.39
2024-01-31T16:34:29.954Z,82.52
2024-01-31T16:36:58.554Z,81.42
2024-01-31T16:39:27.184Z,80.70
2024-01-31T16:41:56.096Z,79.03
2024-01-31T16:44:24.937Z,76.60
2024-01-31T16:46:53.531Z,75.41
2024-01-31T16:49:22.269Z,75.10
2024-01-31T16:51:50.949Z,74.08
2024-01-31T16:54:19.692Z,74.80
2024-01-31T16:56:48.392Z,73.68
2024-01-31T16:59:16.927Z,73.48
2024-01-31T17:01:48.632Z,73.13
2024-01-31T17:04:18.614Z,71.78
2024-01-31T17:06:47.214Z,71.17
2024-01-31T17:09:16.006Z,70.58
2024-01-31T17:11:44.689Z,69.10
2024-01-31T17:14:13.408Z,70.28
2024-01-31T17:16:46.386Z,69.76
2024-01-31T17:19:15.149Z,69.00
2024-01-31T17:21:43.936Z,68.61
2024-01-31T17:24:12.981Z,68.93
2024-01-31T17:26:41.752Z,68.34
2024-01-31T17:29:10.434Z,68.65
2024-01-31T17:31:39.166Z,69.59
2024-01-31T17:34:11.023Z,67.71
2024-01-31T17:36:39.684Z,68.87
2024-01-31T17:39:08.994Z,68.89
2024-01-31T17:41:37.582Z,68.21
2024-01-31T17:44:06.193Z,66.69
2024-01-31T17:46:34.889Z,67.24
2024-01-31T17:49:03.604Z,67.47
2024-01-31T17:51:32.264Z,67.93
2024-01-31T17:54:01.010Z,66.76
2024-01-31T17:56:29.758Z,65.85
2024-01-31T17:58:58.513Z,66.49
2024-01-31T18:01:27.829Z,62.90
2024-01-31T18:03:56.525Z,65.09
2024-01-31T18:06:25.353Z,63.12
2024-01-31T18:08:54.117Z,61.81
2024-01-31T18:11:22.708Z,62.09
2024-01-31T18:13:51.917Z,61.96
2024-01-31T18:16:21.280Z,61.06
2024-01-31T18:18:50.016Z,61.79
2024-01-31T18:21:19.053Z,61.42
2024-01-31T18:23:48.044Z,60.85
2024-01-31T18:26:21.742Z,60.18
2024-01-31T18:28:50.326Z,60.14
2024-01-31T18:31:21.500Z,59.39
2024-01-31T18:33:50.480Z,60.19
2024-01-31T18:36:19.594Z,58.61
2024-01-31T18:38:49.063Z,57.88
2024-01-31T18:41:18.757Z,58.38
2024-01-31T18:43:47.970Z,59.39
2024-01-31T18:46:17.030Z,57.93
2024-01-31T18:48:47.369Z,57.13
2024-01-31T18:51:18.942Z,55.87
2024-01-31T18:53:47.762Z,56.01
2024-01-31T18:56:16.776Z,55.98
2024-01-31T18:58:46.902Z,54.90
2024-01-31T19:01:15.619Z,54.85
2024-01-31T19:03:44.219Z,54.45
2024-01-31T19:06:13.961Z,55.25
2024-01-31T19:08:42.744Z,56.35
2024-01-31T19:11:11.771Z,56.00
2024-01-31T19:13:41.300Z,53.16
2024-01-31T19:16:09.903Z,52.69
2024-01-31T19:18:42.550Z,51.24
2024-01-31T19:21:11.354Z,50.34
2024-01-31T19:23:40.030Z,49.96
2024-01-31T19:26:08.428Z,49.37
2024-01-31T19:28:37.031Z,48.86
2024-01-31T19:31:05.737Z,48.17
2024-01-31T19:33:34.522Z,49.76
2024-01-31T19:36:03.323Z,48.00
2024-01-31T19:38:32.262Z,49.28
2024-01-31T19:41:00.856Z,48.53
2024-01-31T19:43:29.430Z,49.41
2024-01-31T19:45:57.980Z,47.13
2024-01-31T19:48:26.798Z,48.20
2024-01-31T19:50:55.515Z,50.12
2024-01-31T19:53:24.154Z,50.68
2024-01-31T19:55:52.762Z,48.93
2024-01-31T19:58:21.323Z,49.20
2024-01-31T20:00:50.031Z,50.17
2024-01-31T20:03:18.749Z,48.02
2024-01-31T20:05:48.968Z,47.94
2024-01-31T20:08:17.645Z,47.86
2024-01-31T20:10:46.263Z,48.88
2024-01-31T20:13:14.820Z,48.60
2024-01-31T20:15:43.472Z,49.58
2024-01-31T20:18:12.710Z,48.29
2024-01-31T20:20:43.517Z,48.94
2024-01-31T20:23:12.763Z,48.60
2024-01-31T20:25:41.414Z,48.00
2024-01-31T20:28:10.005Z,47.79
2024-01-31T20:30:38.710Z,48.21
2024-01-31T20:33:07.474Z,47.45
2024-01-31T20:35:37.209Z,47.60
2024-01-31T20:38:06.904Z,48.07
2024-01-31T20:40:35.557Z,48.38
2024-01-31T20:43:04.264Z,47.98
2024-01-31T20:45:36.691Z,48.55
2024-01-31T20:48:06.170Z,47.77
2024-01-31T20:50:34.915Z,47.76
2024-01-31T20:53:03.574Z,48.92
2024-01-31T20:55:32.473Z,49.03
2024-01-31T20:58:01.052Z,49.62
2024-01-31T21:00:29.592Z,48.88
2024-01-31T21:02:58.280Z,47.68
2024-01-31T21:05:30.491Z,47.63
2024-01-31T21:07:59.413Z,47.21
2024-01-31T21:10:28.113Z,48.45
2024-01-31T21:12:56.654Z,48.46
2024-01-31T21:15:25.299Z,48.31
2024-01-31T21:17:53.956Z,49.06
2024-01-31T21:20:22.612Z,49.90
2024-01-31T21:22:51.252Z,49.45
2024-01-31T21:25:19.985Z,49.55
2024-01-31T21:27:48.786Z,50.58
2024-01-31T21:30:17.499Z,51.47
2024-01-31T21:32:46.191Z,53.57
2024-01-31T21:35:14.870Z,53.06
2024-01-31T21:37:43.526Z,53.95
2024-01-31T21:40:13.052Z,53.88
2024-01-31T21:42:43.046Z,54.69
2024-01-31T21:45:13.873Z,54.64
2024-01-31T21:47:42.612Z,55.38
2024-01-31T21:50:11.521Z,54.98
2024-01-31T21:52:40.484Z,54.77
2024-01-31T21:55:09.145Z,55.99
2024-01-31T21:57:37.556Z,56.77
2024-01-31T22:00:08.368Z,57.32
2024-01-31T22:02:37.005Z,58.41
2024-01-31T22:05:05.863Z,58.20
2024-01-31T22:07:34.598Z,58.51
2024-01-31T22:10:03.202Z,59.03
2024-01-31T22:12:31.879Z,59.36
2024-01-31T22:15:00.542Z,59.94
2024-01-31T22:17:29.230Z,59.42
2024-01-31T22:19:58.038Z,59.76
2024-01-31T22:22:26.736Z,60.97
2024-01-31T22:24:55.552Z,60.51
2024-01-31T22:27:24.209Z,60.62
2024-01-31T22:29:52.830Z,62.47
2024-01-31T22:32:21.401Z,62.82
2024-01-31T22:34:49.877Z,62.34
2024-01-31T22:37:18.482Z,62.56
2024-01-31T22:39:47.283Z,63.07
2024-01-31T22:42:15.864Z,63.18
2024-01-31T22:44:44.545Z,63.98
2024-01-31T22:47:13.344Z,63.77
2024-01-31T22:49:42.251Z,64.02
2024-01-31T22:52:11.264Z,63.63
2024-01-31T22:54:47.489Z,64.37
2024-01-31T22:57:22.745Z,64.17
2024-01-31T22:59:51.473Z,64.04
2024-01-31T23:02:20.054Z,65.04
2024-01-31T23:04:48.720Z,65.10
2024-01-31T23:07:17.586Z,65.36
2024-01-31T23:09:46.335Z,65.05
2024-01-31T23:12:15.402Z,65.21
2024-01-31T23:14:47.390Z,66.04
2024-01-31T23:17:15.810Z,65.74
2024-01-31T23:19:44.415Z,67.10
2024-01-31T23:22:13.055Z,67.22
2024-01-31T23:24:42.395Z,67.88
2024-01-31T23:27:11.031Z,68.12
2024-01-31T23:29:39.859Z,68.00
2024-01-31T23:32:08.797Z,68.69
2024-01-31T23:34:36.728Z,68.99
2024-01-31T23:37:05.467Z,69.10
2024-01-31T23:39:34.115Z,70.23
2024-01-31T23:42:02.796Z,69.97
2024-01-31T23:44:31.495Z,70.58
2024-01-31T23:47:00.068Z,70.77
2024-01-31T23:49:28.863Z,71.35
2024-01-31T23:51:57.846Z,72.22
2024-01-31T23:54:26.391Z,72.06
2024-01-31T23:56:54.994Z,72.71
2024-01-31T23:59:23.998Z,72.61
